This is the latest recevied weather packets stored in our database for station/object SV9TNF-1. If no packets are shown the sender has not sent any weather packets the latest 10 day(s).
| Time | Temp. | Humidity | Pressure | Rain* | Wind** | Luminosity | Snow |
|---|---|---|---|---|---|---|---|
| 1777536588 | 26.67° C | 25% | 1004.1 hPa | 0 mm | 4.92 m/s, 171° | - | - |
| 1777536287 | 26.67° C | 26% | 1004.1 hPa | 0 mm | 0 m/s | - | - |
| 1777535987 | 26.11° C | 27% | 1004.1 hPa | 0 mm | 4.02 m/s, 331° | - | - |
| 1777535687 | 26.11° C | 28% | 1004.1 hPa | 0 mm | 4.02 m/s, 312° | - | - |
| 1777535387 | 26.67° C | 28% | 1004.1 hPa | 0 mm | 1.79 m/s, 329° | - | - |
| 1777535087 | 26.11° C | 29% | 1003.7 hPa | 0 mm | 4.47 m/s, 329° | - | - |
| 1777534787 | 26.67° C | 28% | 1003.7 hPa | 0 mm | 2.24 m/s, 129° | - | - |
| 1777534487 | 26.11° C | 30% | 1004.1 hPa | 0 mm | 2.24 m/s, 168° | - | - |
| 1777534187 | 26.11° C | 29% | 1004.1 hPa | 0 mm | 2.24 m/s, 144° | - | - |
| 1777533887 | 26.11° C | 31% | 1004.1 hPa | 0 mm | 0 m/s | - | - |
| 1777533587 | 25.56° C | 34% | 1003.7 hPa | 0 mm | 1.34 m/s, 151° | - | - |
| 1777533286 | 25.56° C | 34% | 1003.7 hPa | 0 mm | 3.13 m/s, 134° | - | - |
| 1777532987 | 25° C | 36% | 1004.1 hPa | 0 mm | 1.34 m/s, 131° | - | - |
| 1777532686 | 24.44° C | 38% | 1004.1 hPa | 0 mm | 1.34 m/s, 120° | - | - |
| 1777532386 | 24.44° C | 36% | 1003.7 hPa | 0 mm | 0 m/s | - | - |
| 1777532086 | 24.44° C | 37% | 1003.7 hPa | 0 mm | 0.89 m/s, 134° | - | - |
| 1777531786 | 24.44° C | 40% | 1003.7 hPa | 0 mm | 1.34 m/s, 143° | - | - |
| 1777531486 | 23.89° C | 41% | 1003.7 hPa | 0 mm | 0.89 m/s, 126° | - | - |
| 1777531186 | 23.33° C | 41% | 1003.7 hPa | 0 mm | 2.68 m/s, 149° | - | - |
| 1777530886 | 22.78° C | 43% | 1003.7 hPa | 0 mm | 1.79 m/s, 178° | - | - |
| 1777530586 | 22.78° C | 45% | 1003.7 hPa | 0 mm | 4.92 m/s, 188° | - | - |
| 1777530285 | 23.33° C | 44% | 1003.4 hPa | 0 mm | 0 m/s | - | - |
| 1777529985 | 23.33° C | 41% | 1003.4 hPa | 0 mm | 1.79 m/s, 130° | - | - |
| 1777529685 | 22.78° C | 44% | 1003.4 hPa | 0 mm | 0.89 m/s, 124° | - | - |
| 1777529385 | 22.22° C | 42% | 1003.7 hPa | 0 mm | 0 m/s | - | - |
* Rain latest hour (hover to see other rain measurements)
** Current wind speed in m/s (hover to see current wind gust speed)